createdAt,value
2022-09-16T00:01:21.003Z,93155.09
2022-09-16T00:03:50.411Z,93154.94
2022-09-16T00:06:22.781Z,93154.16
2022-09-16T00:08:52.755Z,93159.38
2022-09-16T00:11:21.353Z,93157.94
2022-09-16T00:13:50.099Z,93147.16
2022-09-16T00:16:26.311Z,93148.13
2022-09-16T00:19:01.109Z,93160.31
2022-09-16T00:21:31.267Z,93154.94
2022-09-16T00:23:59.955Z,93151.59
2022-09-16T00:26:28.840Z,93148.75
2022-09-16T00:28:57.384Z,93144.78
2022-09-16T00:31:26.012Z,93142.72
2022-09-16T00:33:54.597Z,93137.63
2022-09-16T00:36:23.173Z,93129.06
2022-09-16T00:38:58.898Z,93123.69
2022-09-16T00:41:34.524Z,93133.97
2022-09-16T00:44:07.311Z,93140.47
2022-09-16T00:46:47.638Z,93126.84
2022-09-16T00:49:22.460Z,93128.41
2022-09-16T00:51:55.632Z,93123.66
2022-09-16T00:54:24.406Z,93127.78
2022-09-16T00:56:57.312Z,93124.13
2022-09-16T00:59:33.312Z,93129.78
2022-09-16T01:02:09.582Z,93126.75
2022-09-16T01:04:43.667Z,93132.44
2022-09-16T01:07:12.023Z,93134.81
2022-09-16T01:09:41.119Z,93140.34
2022-09-16T01:12:09.727Z,93136.06
2022-09-16T01:14:57.475Z,93137.50
2022-09-16T01:17:53.468Z,93133.53
2022-09-16T01:20:45.586Z,93133.22
2022-09-16T01:23:33.256Z,93136.53
2022-09-16T01:26:42.359Z,93137.94
2022-09-16T01:29:45.007Z,93155.69
2022-09-16T01:32:23.312Z,93183.34
2022-09-16T01:35:20.526Z,93178.53
2022-09-16T01:38:30.188Z,93178.66
2022-09-16T01:41:23.120Z,93183.34
2022-09-16T01:43:58.746Z,93184.13
2022-09-16T01:46:33.470Z,93185.53
2022-09-16T01:49:23.878Z,93192.47
2022-09-16T01:52:03.138Z,93189.63
2022-09-16T01:55:05.956Z,93199.47
2022-09-16T01:57:55.003Z,93205.09
2022-09-16T02:00:24.547Z,93211.47
2022-09-16T02:02:53.122Z,93232.63
2022-09-16T02:05:30.722Z,93226.53
2022-09-16T02:08:06.073Z,93235.41
2022-09-16T02:10:42.235Z,93243.19
2022-09-16T02:13:50.153Z,93243.13
2022-09-16T02:16:26.469Z,93244.41
2022-09-16T02:18:59.583Z,93233.16
2022-09-16T02:21:30.949Z,93216.78
2022-09-16T02:24:04.993Z,93212.91
2022-09-16T02:26:39.834Z,93213.94
2022-09-16T02:29:18.031Z,93218.47
2022-09-16T02:31:50.348Z,93208.38
2022-09-16T02:34:27.806Z,93213.75
2022-09-16T02:37:01.869Z,93205.81
2022-09-16T02:39:33.948Z,93207.19
2022-09-16T02:42:03.395Z,93214.38
2022-09-16T02:44:32.260Z,93219.19
2022-09-16T02:47:29.785Z,93218.88
2022-09-16T02:50:03.373Z,93220.19
2022-09-16T02:52:41.884Z,93229.53
2022-09-16T02:55:28.638Z,93227.47
2022-09-16T02:57:57.592Z,93218.13
2022-09-16T03:00:27.102Z,93217.88
2022-09-16T03:02:56.320Z,93211.53
2022-09-16T03:05:29.986Z,93221.19
2022-09-16T03:07:59.895Z,93221.19
2022-09-16T03:10:36.479Z,93217.47
2022-09-16T03:13:13.722Z,93214.28
2022-09-16T03:16:05.016Z,93215.88
2022-09-16T03:19:00.142Z,93227.59
2022-09-16T03:21:37.906Z,93223.81
2022-09-16T03:24:16.701Z,93220.88
2022-09-16T03:26:50.176Z,93219.50
2022-09-16T03:29:27.268Z,93218.97
2022-09-16T03:32:13.321Z,93220.84
2022-09-16T03:34:49.881Z,93221.13
2022-09-16T03:37:20.489Z,93214.44
2022-09-16T03:39:54.705Z,93221.38
2022-09-16T03:42:24.492Z,93224.38
2022-09-16T03:44:53.174Z,93226.78
2022-09-16T03:47:21.759Z,93219.59
2022-09-16T03:49:50.440Z,93216.94
2022-09-16T03:52:21.943Z,93215.88
2022-09-16T03:54:50.311Z,93215.63
2022-09-16T03:57:18.984Z,93208.44
2022-09-16T03:59:47.488Z,93203.09
2022-09-16T04:02:16.135Z,93210.09
2022-09-16T04:04:44.636Z,93217.34
2022-09-16T04:07:13.364Z,93217.59
2022-09-16T04:09:41.705Z,93216.03
2022-09-16T04:12:11.333Z,93224.03
2022-09-16T04:14:39.834Z,93231.00
2022-09-16T04:17:08.610Z,93229.16
2022-09-16T04:19:37.370Z,93225.72
2022-09-16T04:22:06.109Z,93225.19
2022-09-16T04:24:34.682Z,93223.31
2022-09-16T04:27:03.327Z,93221.44
2022-09-16T04:29:33.628Z,93223.88
2022-09-16T04:32:02.250Z,93224.16
2022-09-16T04:34:30.952Z,93224.69
2022-09-16T04:37:00.202Z,93223.38
2022-09-16T04:39:29.054Z,93217.78
2022-09-16T04:41:57.617Z,93215.91
2022-09-16T04:44:27.977Z,93218.06
2022-09-16T04:46:55.980Z,93219.69
2022-09-16T04:49:24.960Z,93214.63
2022-09-16T04:51:53.310Z,93204.25
2022-09-16T04:54:21.911Z,93214.38
2022-09-16T04:56:50.465Z,93206.38
2022-09-16T04:59:18.967Z,93212.00
2022-09-16T05:01:47.570Z,93217.88
2022-09-16T05:04:16.202Z,93210.41
2022-09-16T05:06:45.277Z,93219.75
2022-09-16T05:09:14.743Z,93216.53
2022-09-16T05:11:43.581Z,93209.88
2022-09-16T05:14:17.147Z,93214.69
2022-09-16T05:16:46.715Z,93215.22
2022-09-16T05:19:16.279Z,93213.34
2022-09-16T05:21:45.083Z,93211.22
2022-09-16T05:24:15.218Z,93220.03
2022-09-16T05:26:45.119Z,93206.16
2022-09-16T05:29:17.057Z,93216.03
2022-09-16T05:31:48.384Z,93216.84
2022-09-16T05:34:19.896Z,93210.44
2022-09-16T05:36:50.180Z,93215.75
2022-09-16T05:39:24.313Z,93210.97
2022-09-16T05:42:02.237Z,93207.75
2022-09-16T05:44:31.085Z,93208.84
2022-09-16T05:46:59.700Z,93196.84
2022-09-16T05:49:28.411Z,93202.44
2022-09-16T05:51:57.116Z,93208.81
2022-09-16T05:54:26.410Z,93205.63
2022-09-16T05:56:55.158Z,93200.81
2022-09-16T05:59:24.672Z,93196.81
2022-09-16T06:01:53.334Z,93198.97
2022-09-16T06:04:22.085Z,93198.69
2022-09-16T06:06:50.765Z,93205.38
2022-09-16T06:09:24.436Z,93191.78
2022-09-16T06:12:01.490Z,93193.38
2022-09-16T06:14:31.044Z,93186.19
2022-09-16T06:16:59.405Z,93190.22
2022-09-16T06:19:28.406Z,93186.50
2022-09-16T06:21:57.315Z,93184.38
2022-09-16T06:24:25.854Z,93177.41
2022-09-16T06:26:54.443Z,93181.16
2022-09-16T06:29:23.311Z,93180.38
2022-09-16T06:31:51.975Z,93181.44
2022-09-16T06:34:20.576Z,93183.59
2022-09-16T06:36:48.647Z,93178.50
2022-09-16T06:39:18.185Z,93181.19
2022-09-16T06:41:47.417Z,93180.38
2022-09-16T06:44:15.789Z,93183.84
2022-09-16T06:46:45.434Z,93182.81
2022-09-16T06:49:14.316Z,93169.50
2022-09-16T06:51:43.074Z,93181.47
2022-09-16T06:54:12.446Z,93178.53
2022-09-16T06:56:42.683Z,93174.81
2022-09-16T06:59:14.179Z,93180.69
2022-09-16T07:01:42.870Z,93175.88
2022-09-16T07:04:14.362Z,93176.41
2022-09-16T07:07:08.226Z,93176.41
2022-09-16T07:09:32.324Z,93166.31
2022-09-16T07:12:01.167Z,93169.50
2022-09-16T07:14:29.926Z,93174.03
2022-09-16T07:16:58.556Z,93177.22
2022-09-16T07:19:28.011Z,93167.91
2022-09-16T07:21:56.640Z,93171.38
2022-09-16T07:24:25.185Z,93167.66
2022-09-16T07:26:53.610Z,93163.66
2022-09-16T07:29:22.685Z,93165.25
2022-09-16T07:31:51.378Z,93168.44
2022-09-16T07:34:20.159Z,93169.50
2022-09-16T07:36:50.653Z,93163.09
2022-09-16T07:39:20.607Z,93172.69
2022-09-16T07:41:49.851Z,93168.97
2022-09-16T07:44:20.958Z,93167.38
2022-09-16T07:46:49.639Z,93169.50
2022-09-16T07:49:19.609Z,93166.31
2022-09-16T07:51:48.283Z,93167.91
2022-09-16T07:54:19.186Z,93169.22
2022-09-16T07:56:47.897Z,93168.69
2022-09-16T07:59:19.707Z,93169.97
2022-09-16T08:01:50.299Z,93173.19
2022-09-16T08:04:20.668Z,93166.25
2022-09-16T08:06:50.016Z,93165.69
2022-09-16T08:12:09.112Z,93163.03
2022-09-16T08:14:37.816Z,93175.25
2022-09-16T08:17:06.192Z,93163.81
2022-09-16T08:19:35.517Z,93169.66
2022-09-16T08:22:04.566Z,93171.25
2022-09-16T08:24:33.394Z,93173.66
2022-09-16T08:27:01.954Z,93174.44
2022-09-16T08:29:30.940Z,93171.22
2022-09-16T08:31:59.623Z,93169.84
2022-09-16T08:34:28.366Z,93166.66
2022-09-16T08:36:57.560Z,93167.97
2022-09-16T08:39:26.142Z,93154.69
2022-09-16T08:42:31.852Z,93154.97
2022-09-16T08:45:11.204Z,93156.03
2022-09-16T08:48:02.590Z,93149.13
2022-09-16T08:50:38.999Z,93153.91
2022-09-16T08:53:18.145Z,93148.84
2022-09-16T08:55:50.006Z,93153.63
2022-09-16T08:58:41.503Z,93144.06
2022-09-16T09:02:09.182Z,93141.66
2022-09-16T09:04:38.401Z,93149.38
2022-09-16T09:07:28.015Z,93152.28
2022-09-16T09:10:27.084Z,93147.78
2022-09-16T09:13:12.881Z,93133.69
2022-09-16T09:15:52.252Z,93134.22
2022-09-16T09:18:33.846Z,93136.59
2022-09-16T09:21:27.422Z,93138.16
2022-09-16T09:24:30.117Z,93134.19
2022-09-16T09:27:18.269Z,93134.72
2022-09-16T09:29:59.370Z,93130.19
2022-09-16T09:32:46.317Z,93131.25
2022-09-16T09:35:17.502Z,93131.50
2022-09-16T09:38:00.884Z,93123.50
2022-09-16T09:40:32.070Z,93123.50
2022-09-16T09:43:20.019Z,93113.69
2022-09-16T09:46:14.694Z,93126.97
2022-09-16T09:49:08.831Z,93126.97
2022-09-16T09:51:53.899Z,93121.13
2022-09-16T09:54:31.677Z,93123.25
2022-09-16T09:57:05.528Z,93122.44
2022-09-16T09:59:57.050Z,93121.88
2022-09-16T10:02:25.917Z,93124.25
2022-09-16T10:04:54.588Z,93120.28
2022-09-16T10:07:28.344Z,93120.25
2022-09-16T10:10:04.229Z,93112.00
2022-09-16T10:12:36.394Z,93113.78
2022-09-16T10:15:05.691Z,93109.50
2022-09-16T10:17:35.646Z,93121.09
2022-09-16T10:20:22.490Z,93121.59
2022-09-16T10:23:04.792Z,93120.78
2022-09-16T10:25:34.855Z,93122.53
2022-09-16T10:28:20.058Z,93120.13
2022-09-16T10:30:57.944Z,93112.91
2022-09-16T10:33:31.749Z,93126.25
2022-09-16T10:36:03.679Z,93114.28
2022-09-16T10:38:48.539Z,93113.94
2022-09-16T10:41:20.610Z,93107.59
2022-09-16T10:44:05.343Z,93111.56
2022-09-16T10:46:34.437Z,93112.13
2022-09-16T10:49:11.151Z,93117.13
2022-09-16T10:51:39.767Z,93106.25
2022-09-16T10:54:08.194Z,93107.31
2022-09-16T10:56:52.515Z,93116.81
2022-09-16T10:59:21.474Z,93108.50
2022-09-16T11:02:31.050Z,93105.50
2022-09-16T11:05:08.180Z,93108.91
2022-09-16T11:07:48.575Z,93108.44
2022-09-16T11:10:56.479Z,93110.28
2022-09-16T11:14:10.749Z,93109.53
2022-09-16T11:16:57.530Z,93101.06
2022-09-16T11:19:49.977Z,93103.38
2022-09-16T11:22:33.451Z,93104.09
2022-09-16T11:25:10.151Z,93099.81
2022-09-16T11:27:41.476Z,93091.47
2022-09-16T11:30:23.495Z,93090.63
2022-09-16T11:36:16.311Z,93086.44
2022-09-16T11:39:05.849Z,93101.28
2022-09-16T11:41:34.680Z,93089.63
2022-09-16T11:44:30.041Z,93090.44
2022-09-16T11:47:27.933Z,93091.22
2022-09-16T11:50:11.242Z,93089.38
2022-09-16T11:53:04.842Z,93101.56
2022-09-16T11:55:53.917Z,93095.72
2022-09-16T11:58:56.859Z,93096.22
2022-09-16T12:01:28.226Z,93092.47
2022-09-16T12:04:13.368Z,93097.53
2022-09-16T12:07:16.141Z,93100.13
2022-09-16T12:09:57.119Z,93089.69
2022-09-16T12:12:33.691Z,93102.69
2022-09-16T12:15:08.703Z,93096.34
2022-09-16T12:17:41.755Z,93095.75
2022-09-16T12:20:38.010Z,93089.16
2022-09-16T12:23:22.030Z,93092.84
2022-09-16T12:26:07.539Z,93087.34
2022-09-16T12:28:54.227Z,93092.63
2022-09-16T12:31:25.877Z,93080.94
2022-09-16T12:34:23.970Z,93088.34
2022-09-16T12:37:07.044Z,93089.91
2022-09-16T12:39:35.786Z,93085.84
2022-09-16T12:42:46.068Z,93088.13
2022-09-16T12:45:36.352Z,93089.09
2022-09-16T12:48:23.292Z,93098.31
2022-09-16T12:51:22.285Z,93094.38
2022-09-16T12:54:14.800Z,93096.31
2022-09-16T12:57:05.859Z,93104.69
2022-09-16T12:59:52.022Z,93101.91
2022-09-16T13:02:24.671Z,93102.66
2022-09-16T13:04:57.377Z,93094.09
2022-09-16T13:07:27.579Z,93098.97
2022-09-16T13:10:08.577Z,93096.25
2022-09-16T13:12:44.046Z,93103.47
2022-09-16T13:15:35.412Z,93107.97
2022-09-16T13:18:23.508Z,93102.03
2022-09-16T13:21:01.030Z,93100.38
2022-09-16T13:23:36.680Z,93096.44
2022-09-16T13:26:10.445Z,93102.84
2022-09-16T13:28:40.247Z,93098.22
2022-09-16T13:31:19.021Z,93091.19
2022-09-16T13:33:58.641Z,93093.41
2022-09-16T13:36:27.258Z,93086.28
2022-09-16T13:39:17.560Z,93092.78
2022-09-16T13:41:48.706Z,93091.03
2022-09-16T13:44:49.527Z,93093.13
2022-09-16T13:47:30.076Z,93091.03
2022-09-16T13:50:22.270Z,93089.94
2022-09-16T13:52:51.961Z,93086.16
2022-09-16T13:55:28.663Z,93089.34
2022-09-16T13:58:06.750Z,93084.72
2022-09-16T14:00:56.221Z,93081.91
2022-09-16T14:03:34.721Z,93079.66
2022-09-16T14:06:06.054Z,93076.94
2022-09-16T14:08:40.285Z,93073.09
2022-09-16T14:11:36.644Z,93080.06
2022-09-16T14:14:29.879Z,93078.47
2022-09-16T14:17:07.194Z,93079.66
2022-09-16T14:19:41.958Z,93079.75
2022-09-16T14:22:18.284Z,93079.50
2022-09-16T14:24:52.906Z,93084.00
2022-09-16T14:27:40.692Z,93082.22
2022-09-16T14:30:18.395Z,93084.81
2022-09-16T14:32:49.376Z,93075.50
2022-09-16T14:35:23.166Z,93079.00
2022-09-16T14:37:56.104Z,93078.03
2022-09-16T14:40:28.802Z,93085.28
2022-09-16T14:43:00.193Z,93088.00
2022-09-16T14:45:31.353Z,93081.47
2022-09-16T14:48:03.158Z,93088.72
2022-09-16T14:50:39.494Z,93076.38
2022-09-16T14:53:26.913Z,93076.19
2022-09-16T14:56:02.360Z,93076.75
2022-09-16T14:58:32.367Z,93073.75
2022-09-16T15:01:12.417Z,93076.78
2022-09-16T15:03:49.889Z,93075.69
2022-09-16T15:06:24.444Z,93073.44
2022-09-16T15:09:04.671Z,93076.72
2022-09-16T15:11:48.490Z,93078.19
2022-09-16T15:14:19.706Z,93080.91
2022-09-16T15:17:05.521Z,93090.53
2022-09-16T15:19:40.274Z,93077.84
2022-09-16T15:22:12.376Z,93085.34
2022-09-16T15:24:42.469Z,93089.97
2022-09-16T15:27:11.774Z,93081.34
2022-09-16T15:29:51.778Z,93079.97
2022-09-16T15:32:25.310Z,93071.69
2022-09-16T15:35:17.520Z,93071.03
2022-09-16T15:37:46.127Z,93080.41
2022-09-16T15:40:29.884Z,93087.09
2022-09-16T15:43:04.657Z,93079.44
2022-09-16T15:45:33.371Z,93078.38
2022-09-16T15:48:23.128Z,93073.59
2022-09-16T15:50:59.503Z,93075.75
2022-09-16T15:53:31.161Z,93081.63
2022-09-16T15:56:05.879Z,93074.19
2022-09-16T15:58:34.620Z,93070.75
2022-09-16T16:01:21.546Z,93063.03
2022-09-16T16:04:02.196Z,93073.13
2022-09-16T16:07:11.931Z,93074.22
2022-09-16T16:09:44.742Z,93070.22
2022-09-16T16:12:17.698Z,93078.19
2022-09-16T16:14:47.740Z,93073.38
2022-09-16T16:17:20.470Z,93066.16
2022-09-16T16:19:51.949Z,93067.75
2022-09-16T16:22:22.008Z,93075.66
2022-09-16T16:24:50.709Z,93079.25
2022-09-16T16:27:19.256Z,93077.84
2022-09-16T16:29:47.969Z,93066.03
2022-09-16T16:32:17.941Z,93070.78
2022-09-16T16:34:49.075Z,93065.66
2022-09-16T16:37:44.521Z,93071.88
2022-09-16T16:40:09.046Z,93066.03
2022-09-16T16:42:37.662Z,93059.31
2022-09-16T16:45:06.689Z,93064.50
2022-09-16T16:47:35.276Z,93059.78
2022-09-16T16:50:03.957Z,93064.78
2022-09-16T16:52:32.475Z,93066.88
2022-09-16T16:55:01.403Z,93068.78
2022-09-16T16:57:30.277Z,93069.16
2022-09-16T16:59:58.812Z,93078.09
2022-09-16T17:02:27.306Z,93079.91
2022-09-16T17:04:55.916Z,93077.38
2022-09-16T17:07:27.050Z,93072.66
2022-09-16T17:09:58.368Z,93075.25
2022-09-16T17:12:27.047Z,93077.38
2022-09-16T17:14:55.742Z,93070.13
2022-09-16T17:17:27.749Z,93067.31
2022-09-16T17:19:59.512Z,93063.06
2022-09-16T17:22:28.598Z,93066.94
2022-09-16T17:24:57.891Z,93067.19
2022-09-16T17:27:28.992Z,93066.22
2022-09-16T17:29:57.575Z,93063.50
2022-09-16T17:32:25.948Z,93061.69
2022-09-16T17:34:54.670Z,93054.56
2022-09-16T17:37:23.254Z,93049.41
2022-09-16T17:39:51.844Z,93064.13
2022-09-16T17:42:21.539Z,93053.13
2022-09-16T17:44:50.110Z,93048.38
2022-09-16T17:47:18.641Z,93043.47
2022-09-16T17:49:47.456Z,93039.03
2022-09-16T17:52:15.992Z,93039.97
2022-09-16T17:54:44.540Z,93030.25
2022-09-16T17:57:13.229Z,93032.63
2022-09-16T17:59:41.762Z,93032.44
2022-09-16T18:02:11.522Z,93031.72
2022-09-16T18:04:40.231Z,93033.56
2022-09-16T18:07:08.953Z,93033.41
2022-09-16T18:09:37.389Z,93031.25
2022-09-16T18:12:05.761Z,93031.84
2022-09-16T18:14:34.402Z,93031.31
2022-09-16T18:17:03.013Z,93031.41
2022-09-16T18:19:31.682Z,93023.09
2022-09-16T18:22:00.443Z,93019.34
2022-09-16T18:24:29.169Z,93027.47
2022-09-16T18:26:57.762Z,93020.41
2022-09-16T18:29:26.297Z,93018.41
2022-09-16T18:31:55.835Z,93013.75
2022-09-16T18:34:27.986Z,93008.72
2022-09-16T18:37:00.078Z,93004.22
2022-09-16T18:39:28.674Z,93006.41
2022-09-16T18:41:57.465Z,93009.22
2022-09-16T18:44:25.821Z,93005.94
2022-09-16T18:46:55.123Z,93009.06
2022-09-16T18:49:25.313Z,93008.63
2022-09-16T18:51:55.290Z,93002.28
2022-09-16T18:54:31.799Z,92997.72
2022-09-16T18:57:03.355Z,92990.91
2022-09-16T18:59:33.851Z,92996.00
2022-09-16T19:02:04.811Z,92984.59
2022-09-16T19:04:39.267Z,92986.41
2022-09-16T19:07:09.670Z,92986.19
2022-09-16T19:09:43.715Z,92978.78
2022-09-16T19:12:14.460Z,92985.63
2022-09-16T19:14:43.262Z,92986.63
2022-09-16T19:17:11.892Z,92985.53
2022-09-16T19:19:40.475Z,92975.50
2022-09-16T19:22:09.015Z,92966.72
2022-09-16T19:24:37.860Z,92970.91
2022-09-16T19:27:06.488Z,92973.22
2022-09-16T19:29:35.002Z,92965.78
2022-09-16T19:32:03.728Z,92974.06
2022-09-16T19:34:32.450Z,92968.56
2022-09-16T19:37:01.015Z,92966.09
2022-09-16T19:39:29.766Z,92954.53
2022-09-16T19:41:58.074Z,92961.13
2022-09-16T19:44:26.646Z,92961.34
2022-09-16T19:46:55.808Z,92962.56
2022-09-16T19:49:24.538Z,92961.31
2022-09-16T19:51:54.550Z,92965.38
2022-09-16T19:54:25.379Z,92969.31
2022-09-16T19:56:53.947Z,92959.53
2022-09-16T19:59:23.003Z,92956.78
2022-09-16T20:01:51.869Z,92963.47
2022-09-16T20:04:22.012Z,92955.38
2022-09-16T20:06:51.159Z,92965.03
2022-09-16T20:09:20.918Z,92965.81
2022-09-16T20:11:50.456Z,92968.38
2022-09-16T20:14:23.167Z,92956.78
2022-09-16T20:16:53.112Z,92958.19
2022-09-16T20:19:22.366Z,92950.28
2022-09-16T20:21:51.022Z,92953.94
2022-09-16T20:24:22.049Z,92955.03
2022-09-16T20:26:52.435Z,92947.91
2022-09-16T20:29:21.548Z,92947.41
2022-09-16T20:31:52.131Z,92944.69
2022-09-16T20:34:21.401Z,92943.91
2022-09-16T20:36:50.074Z,92941.22
2022-09-16T20:39:18.395Z,92939.94
2022-09-16T20:41:51.055Z,92930.97
2022-09-16T20:44:19.305Z,92933.97
2022-09-16T20:46:50.188Z,92938.63
2022-09-16T20:49:21.693Z,92944.84
2022-09-16T20:51:50.069Z,92934.66
2022-09-16T20:54:19.030Z,92935.59
2022-09-16T20:56:50.503Z,92930.94
2022-09-16T20:59:21.538Z,92924.94
2022-09-16T21:01:51.246Z,92918.25
2022-09-16T21:04:21.462Z,92923.91
2022-09-16T21:06:50.558Z,92913.84
2022-09-16T21:09:20.301Z,92916.31
2022-09-16T21:11:49.370Z,92910.00
2022-09-16T21:14:19.325Z,92907.06
2022-09-16T21:16:48.220Z,92900.03
2022-09-16T21:19:17.889Z,92901.78
2022-09-16T21:21:48.839Z,92900.00
2022-09-16T21:24:17.923Z,92906.84
2022-09-16T21:26:47.267Z,92891.13
2022-09-16T21:29:22.401Z,92891.66
2022-09-16T21:31:51.051Z,92895.19
2022-09-16T21:34:21.929Z,92896.13
2022-09-16T21:36:51.883Z,92894.09
2022-09-16T21:39:21.949Z,92882.53
2022-09-16T21:41:50.572Z,92894.38
2022-09-16T21:44:19.873Z,92885.31
2022-09-16T21:46:49.231Z,92881.25
2022-09-16T21:49:26.942Z,92880.59
2022-09-16T21:51:57.767Z,92884.13
2022-09-16T21:54:27.189Z,92884.19
2022-09-16T21:56:55.842Z,92878.31
2022-09-16T21:59:24.923Z,92874.06
2022-09-16T22:01:53.615Z,92874.19
2022-09-16T22:04:25.235Z,92879.13
2022-09-16T22:06:56.752Z,92874.97
2022-09-16T22:09:25.414Z,92873.25
2022-09-16T22:11:54.073Z,92859.16
2022-09-16T22:14:22.614Z,92871.28
2022-09-16T22:16:51.635Z,92874.50
2022-09-16T22:19:21.820Z,92865.88
2022-09-16T22:21:52.544Z,92872.06
2022-09-16T22:24:24.011Z,92869.13
2022-09-16T22:26:53.407Z,92861.47
2022-09-16T22:29:22.457Z,92858.84
2022-09-16T22:31:51.120Z,92853.47
2022-09-16T22:34:19.609Z,92849.44
2022-09-16T22:36:48.228Z,92842.31
2022-09-16T22:39:20.583Z,92838.56
2022-09-16T22:41:49.273Z,92835.13
2022-09-16T22:44:17.829Z,92828.44
2022-09-16T22:46:49.403Z,92823.88
2022-09-16T22:49:18.483Z,92822.97
2022-09-16T22:51:47.385Z,92823.56
2022-09-16T22:54:17.072Z,92823.16
2022-09-16T22:56:46.056Z,92816.53
2022-09-16T22:59:20.262Z,92813.56
2022-09-16T23:01:49.397Z,92805.63
2022-09-16T23:04:18.291Z,92807.28
2022-09-16T23:06:47.118Z,92801.72
2022-09-16T23:09:16.417Z,92802.59
2022-09-16T23:11:45.459Z,92803.78
2022-09-16T23:14:16.282Z,92794.69
2022-09-16T23:16:44.831Z,92793.19
2022-09-16T23:19:14.233Z,92798.38
2022-09-16T23:21:43.454Z,92793.72
2022-09-16T23:24:16.666Z,92787.91
2022-09-16T23:26:46.568Z,92789.88
2022-09-16T23:29:16.724Z,92788.91
2022-09-16T23:31:46.600Z,92785.97
2022-09-16T23:34:18.777Z,92773.19
2022-09-16T23:36:48.057Z,92765.59
2022-09-16T23:39:17.956Z,92776.66
2022-09-16T23:41:47.063Z,92773.16
2022-09-16T23:44:17.095Z,92776.78
2022-09-16T23:46:46.119Z,92770.84
2022-09-16T23:49:18.319Z,92767.50
2022-09-16T23:51:46.978Z,92761.38
2022-09-16T23:54:16.054Z,92772.56
2022-09-16T23:56:44.819Z,92770.25
2022-09-16T23:59:14.023Z,92763.38
